sensor_id;sensor_type;location;lat;lon;timestamp;pressure;altitude;pressure_sealevel;temperature;humidity
23574;BME280;11965;53.640;10.050;2023-07-16T00:01:59;100576.66;;;18.19;100.00
23574;BME280;11965;53.640;10.050;2023-07-16T00:04:27;100599.56;;;18.27;100.00
23574;BME280;11965;53.640;10.050;2023-07-16T00:06:54;100616.53;;;18.21;100.00
23574;BME280;11965;53.640;10.050;2023-07-16T00:09:21;100587.28;;;18.17;100.00
23574;BME280;11965;53.640;10.050;2023-07-16T00:11:47;100588.28;;;18.10;100.00
23574;BME280;11965;53.640;10.050;2023-07-16T00:14:14;100578.88;;;17.88;100.00
23574;BME280;11965;53.640;10.050;2023-07-16T00:16:41;100560.25;;;17.82;100.00
23574;BME280;11965;53.640;10.050;2023-07-16T00:19:10;100566.69;;;17.82;100.00
23574;BME280;11965;53.640;10.050;2023-07-16T00:21:38;100535.03;;;17.82;100.00
23574;BME280;11965;53.640;10.050;2023-07-16T00:24:05;100547.31;;;17.81;100.00
23574;BME280;11965;53.640;10.050;2023-07-16T00:26:32;100561.94;;;17.83;100.00
23574;BME280;11965;53.640;10.050;2023-07-16T00:28:58;100571.81;;;17.85;100.00
23574;BME280;11965;53.640;10.050;2023-07-16T00:31:25;100573.78;;;17.73;100.00
23574;BME280;11965;53.640;10.050;2023-07-16T00:33:52;100578.03;;;17.87;100.00
23574;BME280;11965;53.640;10.050;2023-07-16T00:36:19;100579.59;;;17.83;100.00
23574;BME280;11965;53.640;10.050;2023-07-16T00:38:47;100587.03;;;17.90;100.00
23574;BME280;11965;53.640;10.050;2023-07-16T00:41:15;100613.00;;;17.85;100.00
23574;BME280;11965;53.640;10.050;2023-07-16T00:43:42;100625.66;;;17.76;100.00
23574;BME280;11965;53.640;10.050;2023-07-16T00:46:10;100619.47;;;17.74;100.00
23574;BME280;11965;53.640;10.050;2023-07-16T00:48:37;100595.25;;;17.56;100.00
23574;BME280;11965;53.640;10.050;2023-07-16T00:51:05;100594.03;;;17.63;100.00
23574;BME280;11965;53.640;10.050;2023-07-16T00:53:32;100594.88;;;17.64;100.00
23574;BME280;11965;53.640;10.050;2023-07-16T00:56:01;100605.09;;;17.70;100.00
23574;BME280;11965;53.640;10.050;2023-07-16T00:58:28;100620.31;;;17.74;100.00
23574;BME280;11965;53.640;10.050;2023-07-16T01:00:54;100630.94;;;17.84;100.00
23574;BME280;11965;53.640;10.050;2023-07-16T01:03:21;100625.22;;;17.79;100.00
23574;BME280;11965;53.640;10.050;2023-07-16T01:05:55;100619.63;;;17.79;100.00
23574;BME280;11965;53.640;10.050;2023-07-16T01:08:31;100601.91;;;17.78;100.00
23574;BME280;11965;53.640;10.050;2023-07-16T01:11:01;100585.50;;;17.58;100.00
23574;BME280;11965;53.640;10.050;2023-07-16T01:13:28;100595.38;;;17.61;100.00
23574;BME280;11965;53.640;10.050;2023-07-16T01:15:56;100620.38;;;17.62;100.00
23574;BME280;11965;53.640;10.050;2023-07-16T01:18:23;100620.66;;;17.78;100.00
23574;BME280;11965;53.640;10.050;2023-07-16T01:20:50;100631.28;;;17.76;100.00
23574;BME280;11965;53.640;10.050;2023-07-16T01:23:28;100624.88;;;17.63;100.00
23574;BME280;11965;53.640;10.050;2023-07-16T01:26:18;100611.56;;;17.59;100.00
23574;BME280;11965;53.640;10.050;2023-07-16T01:31:49;100594.41;;;17.55;100.00
23574;BME280;11965;53.640;10.050;2023-07-16T01:34:17;100612.44;;;17.59;100.00
23574;BME280;11965;53.640;10.050;2023-07-16T01:36:46;100608.78;;;17.59;100.00
23574;BME280;11965;53.640;10.050;2023-07-16T01:39:14;100607.69;;;17.60;100.00
23574;BME280;11965;53.640;10.050;2023-07-16T01:41:41;100615.22;;;17.59;100.00
23574;BME280;11965;53.640;10.050;2023-07-16T01:44:08;100623.31;;;17.44;100.00
23574;BME280;11965;53.640;10.050;2023-07-16T01:46:35;100627.31;;;17.48;100.00
23574;BME280;11965;53.640;10.050;2023-07-16T01:49:03;100636.72;;;17.42;100.00
23574;BME280;11965;53.640;10.050;2023-07-16T01:51:29;100636.22;;;17.45;100.00
23574;BME280;11965;53.640;10.050;2023-07-16T01:53:56;100621.00;;;17.29;100.00
23574;BME280;11965;53.640;10.050;2023-07-16T01:56:23;100628.09;;;17.20;100.00
23574;BME280;11965;53.640;10.050;2023-07-16T01:58:50;100627.34;;;17.25;100.00
23574;BME280;11965;53.640;10.050;2023-07-16T02:01:17;100621.88;;;17.18;100.00
23574;BME280;11965;53.640;10.050;2023-07-16T02:03:44;100616.75;;;17.27;100.00
23574;BME280;11965;53.640;10.050;2023-07-16T02:06:12;100620.03;;;17.23;100.00
23574;BME280;11965;53.640;10.050;2023-07-16T02:08:40;100635.16;;;17.22;100.00
23574;BME280;11965;53.640;10.050;2023-07-16T02:11:07;100641.59;;;17.11;100.00
23574;BME280;11965;53.640;10.050;2023-07-16T02:13:33;100642.06;;;17.08;100.00
23574;BME280;11965;53.640;10.050;2023-07-16T02:16:00;100654.25;;;17.02;100.00
23574;BME280;11965;53.640;10.050;2023-07-16T02:18:27;100641.22;;;16.96;100.00
23574;BME280;11965;53.640;10.050;2023-07-16T02:20:54;100628.56;;;16.93;100.00
23574;BME280;11965;53.640;10.050;2023-07-16T02:23:22;100630.03;;;16.96;100.00
23574;BME280;11965;53.640;10.050;2023-07-16T02:25:49;100629.78;;;16.86;100.00
23574;BME280;11965;53.640;10.050;2023-07-16T02:28:16;100628.06;;;16.85;100.00
23574;BME280;11965;53.640;10.050;2023-07-16T02:30:43;100630.38;;;16.88;100.00
23574;BME280;11965;53.640;10.050;2023-07-16T02:33:11;100624.03;;;16.81;100.00
23574;BME280;11965;53.640;10.050;2023-07-16T02:35:38;100628.19;;;16.78;100.00
23574;BME280;11965;53.640;10.050;2023-07-16T02:38:04;100639.22;;;16.73;100.00
23574;BME280;11965;53.640;10.050;2023-07-16T02:40:33;100649.56;;;16.72;100.00
23574;BME280;11965;53.640;10.050;2023-07-16T02:42:59;100653.19;;;16.73;100.00
23574;BME280;11965;53.640;10.050;2023-07-16T02:45:26;100638.72;;;16.64;100.00
23574;BME280;11965;53.640;10.050;2023-07-16T02:47:53;100652.94;;;16.63;100.00
23574;BME280;11965;53.640;10.050;2023-07-16T02:50:20;100640.53;;;16.59;100.00
23574;BME280;11965;53.640;10.050;2023-07-16T02:52:46;100646.97;;;16.59;100.00
23574;BME280;11965;53.640;10.050;2023-07-16T02:55:13;100649.91;;;16.64;100.00
23574;BME280;11965;53.640;10.050;2023-07-16T02:57:42;100647.59;;;16.61;100.00
23574;BME280;11965;53.640;10.050;2023-07-16T03:00:09;100642.25;;;16.71;100.00
23574;BME280;11965;53.640;10.050;2023-07-16T03:02:36;100639.69;;;16.70;100.00
23574;BME280;11965;53.640;10.050;2023-07-16T03:05:05;100643.94;;;16.61;100.00
23574;BME280;11965;53.640;10.050;2023-07-16T03:07:33;100650.63;;;16.60;100.00
23574;BME280;11965;53.640;10.050;2023-07-16T03:10:00;100651.00;;;16.63;100.00
23574;BME280;11965;53.640;10.050;2023-07-16T03:12:27;100645.16;;;16.65;100.00
23574;BME280;11965;53.640;10.050;2023-07-16T03:14:55;100646.00;;;16.65;100.00
23574;BME280;11965;53.640;10.050;2023-07-16T03:17:22;100641.16;;;16.61;100.00
23574;BME280;11965;53.640;10.050;2023-07-16T03:19:49;100634.44;;;16.50;100.00
23574;BME280;11965;53.640;10.050;2023-07-16T03:22:16;100624.72;;;16.52;100.00
23574;BME280;11965;53.640;10.050;2023-07-16T03:24:43;100636.97;;;16.51;100.00
23574;BME280;11965;53.640;10.050;2023-07-16T03:27:09;100651.34;;;16.55;100.00
23574;BME280;11965;53.640;10.050;2023-07-16T03:29:36;100647.69;;;16.54;100.00
23574;BME280;11965;53.640;10.050;2023-07-16T03:32:06;100649.75;;;16.47;100.00
23574;BME280;11965;53.640;10.050;2023-07-16T03:34:33;100654.22;;;16.48;100.00
23574;BME280;11965;53.640;10.050;2023-07-16T03:37:00;100656.41;;;16.46;100.00
23574;BME280;11965;53.640;10.050;2023-07-16T03:39:32;100651.09;;;16.56;100.00
23574;BME280;11965;53.640;10.050;2023-07-16T03:41:59;100652.69;;;16.64;100.00
23574;BME280;11965;53.640;10.050;2023-07-16T03:44:26;100651.13;;;16.68;100.00
23574;BME280;11965;53.640;10.050;2023-07-16T03:46:53;100650.88;;;16.70;100.00
23574;BME280;11965;53.640;10.050;2023-07-16T03:49:21;100656.38;;;16.76;100.00
23574;BME280;11965;53.640;10.050;2023-07-16T03:51:48;100663.22;;;16.81;100.00
23574;BME280;11965;53.640;10.050;2023-07-16T03:54:15;100667.28;;;16.85;100.00
23574;BME280;11965;53.640;10.050;2023-07-16T03:56:42;100660.06;;;16.89;100.00
23574;BME280;11965;53.640;10.050;2023-07-16T03:59:09;100671.03;;;16.90;100.00
23574;BME280;11965;53.640;10.050;2023-07-16T04:01:36;100674.69;;;16.91;100.00
23574;BME280;11965;53.640;10.050;2023-07-16T04:04:03;100671.41;;;16.94;100.00
23574;BME280;11965;53.640;10.050;2023-07-16T04:06:31;100692.69;;;16.95;100.00
23574;BME280;11965;53.640;10.050;2023-07-16T04:08:58;100692.59;;;17.13;100.00
23574;BME280;11965;53.640;10.050;2023-07-16T04:11:25;100691.66;;;17.19;100.00
23574;BME280;11965;53.640;10.050;2023-07-16T04:13:52;100706.38;;;17.27;100.00
23574;BME280;11965;53.640;10.050;2023-07-16T04:16:18;100696.78;;;17.22;100.00
23574;BME280;11965;53.640;10.050;2023-07-16T04:18:45;100704.44;;;17.15;100.00
23574;BME280;11965;53.640;10.050;2023-07-16T04:21:12;100717.59;;;17.15;100.00
23574;BME280;11965;53.640;10.050;2023-07-16T04:23:40;100729.84;;;17.14;100.00
23574;BME280;11965;53.640;10.050;2023-07-16T04:26:07;100736.56;;;17.13;100.00
23574;BME280;11965;53.640;10.050;2023-07-16T04:28:34;100738.03;;;17.15;100.00
23574;BME280;11965;53.640;10.050;2023-07-16T04:31:00;100725.28;;;17.19;100.00
23574;BME280;11965;53.640;10.050;2023-07-16T04:33:27;100716.00;;;17.42;100.00
23574;BME280;11965;53.640;10.050;2023-07-16T04:35:54;100728.78;;;17.62;100.00
23574;BME280;11965;53.640;10.050;2023-07-16T04:38:21;100739.78;;;17.87;100.00
23574;BME280;11965;53.640;10.050;2023-07-16T04:40:49;100725.75;;;17.99;100.00
23574;BME280;11965;53.640;10.050;2023-07-16T04:43:16;100728.50;;;18.10;100.00
23574;BME280;11965;53.640;10.050;2023-07-16T04:45:44;100722.72;;;18.00;100.00
23574;BME280;11965;53.640;10.050;2023-07-16T04:48:12;100715.53;;;17.93;100.00
23574;BME280;11965;53.640;10.050;2023-07-16T04:50:39;100724.75;;;18.05;100.00
23574;BME280;11965;53.640;10.050;2023-07-16T04:53:06;100715.53;;;18.33;100.00
23574;BME280;11965;53.640;10.050;2023-07-16T04:55:35;100716.81;;;18.71;100.00
23574;BME280;11965;53.640;10.050;2023-07-16T04:58:03;100728.47;;;18.91;100.00
23574;BME280;11965;53.640;10.050;2023-07-16T05:00:31;100724.88;;;18.96;100.00
23574;BME280;11965;53.640;10.050;2023-07-16T05:02:58;100729.06;;;18.93;98.97
23574;BME280;11965;53.640;10.050;2023-07-16T05:05:39;100726.00;;;19.12;100.00
23574;BME280;11965;53.640;10.050;2023-07-16T05:08:06;100729.34;;;19.09;100.00
23574;BME280;11965;53.640;10.050;2023-07-16T05:10:33;100730.94;;;19.05;100.00
23574;BME280;11965;53.640;10.050;2023-07-16T05:13:00;100730.69;;;19.23;100.00
23574;BME280;11965;53.640;10.050;2023-07-16T05:15:31;100731.28;;;19.59;99.27
23574;BME280;11965;53.640;10.050;2023-07-16T05:17:58;100735.88;;;19.82;92.99
23574;BME280;11965;53.640;10.050;2023-07-16T05:20:25;100748.41;;;19.91;94.20
23574;BME280;11965;53.640;10.050;2023-07-16T05:22:52;100746.81;;;20.22;88.61
23574;BME280;11965;53.640;10.050;2023-07-16T05:25:19;100751.75;;;20.32;93.30
23574;BME280;11965;53.640;10.050;2023-07-16T05:27:46;100754.34;;;20.17;90.14
23574;BME280;11965;53.640;10.050;2023-07-16T05:30:12;100749.47;;;20.07;88.79
23574;BME280;11965;53.640;10.050;2023-07-16T05:32:41;100756.47;;;20.04;88.48
23574;BME280;11965;53.640;10.050;2023-07-16T05:35:08;100749.75;;;19.89;92.49
23574;BME280;11965;53.640;10.050;2023-07-16T05:37:35;100759.66;;;19.74;91.74
23574;BME280;11965;53.640;10.050;2023-07-16T05:40:02;100765.47;;;19.68;87.62
23574;BME280;11965;53.640;10.050;2023-07-16T05:42:29;100766.81;;;19.65;89.78
23574;BME280;11965;53.640;10.050;2023-07-16T05:44:56;100769.38;;;19.83;89.07
23574;BME280;11965;53.640;10.050;2023-07-16T05:47:23;100761.38;;;19.75;89.13
23574;BME280;11965;53.640;10.050;2023-07-16T05:49:51;100765.72;;;19.83;90.77
23574;BME280;11965;53.640;10.050;2023-07-16T05:52:18;100772.75;;;20.02;87.97
23574;BME280;11965;53.640;10.050;2023-07-16T05:54:44;100782.41;;;19.90;86.19
23574;BME280;11965;53.640;10.050;2023-07-16T05:57:11;100787.56;;;19.98;84.63
23574;BME280;11965;53.640;10.050;2023-07-16T05:59:38;100787.84;;;19.96;82.85
23574;BME280;11965;53.640;10.050;2023-07-16T06:02:06;100789.34;;;20.04;81.25
23574;BME280;11965;53.640;10.050;2023-07-16T06:04:33;100787.22;;;20.11;81.15
23574;BME280;11965;53.640;10.050;2023-07-16T06:07:02;100783.72;;;20.04;79.18
23574;BME280;11965;53.640;10.050;2023-07-16T06:09:29;100788.19;;;20.00;80.16
23574;BME280;11965;53.640;10.050;2023-07-16T06:11:56;100788.19;;;20.22;79.38
23574;BME280;11965;53.640;10.050;2023-07-16T06:14:23;100793.28;;;20.42;75.34
23574;BME280;11965;53.640;10.050;2023-07-16T06:16:50;100788.63;;;20.52;73.51
23574;BME280;11965;53.640;10.050;2023-07-16T06:19:18;100784.09;;;20.73;73.58
23574;BME280;11965;53.640;10.050;2023-07-16T06:21:44;100796.59;;;20.83;70.86
23574;BME280;11965;53.640;10.050;2023-07-16T06:24:13;100792.38;;;20.58;71.87
23574;BME280;11965;53.640;10.050;2023-07-16T06:26:39;100800.91;;;20.90;69.43
23574;BME280;11965;53.640;10.050;2023-07-16T06:29:06;100809.94;;;20.92;71.97
23574;BME280;11965;53.640;10.050;2023-07-16T06:31:34;100802.06;;;20.67;69.74
23574;BME280;11965;53.640;10.050;2023-07-16T06:34:01;100811.16;;;20.74;71.70
23574;BME280;11965;53.640;10.050;2023-07-16T06:36:27;100804.69;;;20.74;70.67
23574;BME280;11965;53.640;10.050;2023-07-16T06:38:54;100811.28;;;20.63;69.67
23574;BME280;11965;53.640;10.050;2023-07-16T06:41:22;100815.00;;;20.68;68.84
23574;BME280;11965;53.640;10.050;2023-07-16T06:43:49;100807.81;;;20.78;70.13
23574;BME280;11965;53.640;10.050;2023-07-16T06:46:16;100808.41;;;20.80;71.31
23574;BME280;11965;53.640;10.050;2023-07-16T06:48:43;100803.69;;;20.85;70.77
23574;BME280;11965;53.640;10.050;2023-07-16T06:51:10;100803.03;;;21.05;69.72
23574;BME280;11965;53.640;10.050;2023-07-16T06:53:36;100795.72;;;21.04;71.79
23574;BME280;11965;53.640;10.050;2023-07-16T06:56:03;100820.16;;;20.99;64.63
23574;BME280;11965;53.640;10.050;2023-07-16T06:58:33;100814.25;;;21.00;67.88
23574;BME280;11965;53.640;10.050;2023-07-16T07:01:02;100816.75;;;20.96;70.09
23574;BME280;11965;53.640;10.050;2023-07-16T07:03:29;100826.66;;;20.99;67.84
23574;BME280;11965;53.640;10.050;2023-07-16T07:05:56;100823.28;;;21.29;66.25
23574;BME280;11965;53.640;10.050;2023-07-16T07:08:22;100821.84;;;21.27;64.43
23574;BME280;11965;53.640;10.050;2023-07-16T07:10:49;100833.31;;;21.15;62.54
23574;BME280;11965;53.640;10.050;2023-07-16T07:13:16;100824.31;;;21.18;65.74
23574;BME280;11965;53.640;10.050;2023-07-16T07:15:45;100821.00;;;21.26;68.32
23574;BME280;11965;53.640;10.050;2023-07-16T07:18:12;100823.25;;;21.24;63.74
23574;BME280;11965;53.640;10.050;2023-07-16T07:20:39;100821.31;;;21.03;64.36
23574;BME280;11965;53.640;10.050;2023-07-16T07:23:07;100817.34;;;21.26;64.75
23574;BME280;11965;53.640;10.050;2023-07-16T07:25:33;100830.97;;;21.07;67.07
23574;BME280;11965;53.640;10.050;2023-07-16T07:28:00;100822.34;;;20.91;64.49
23574;BME280;11965;53.640;10.050;2023-07-16T07:30:27;100835.16;;;21.04;65.79
23574;BME280;11965;53.640;10.050;2023-07-16T07:32:55;100821.44;;;21.13;66.46
23574;BME280;11965;53.640;10.050;2023-07-16T07:35:22;100831.69;;;21.24;66.55
23574;BME280;11965;53.640;10.050;2023-07-16T07:37:49;100819.88;;;21.54;62.35
23574;BME280;11965;53.640;10.050;2023-07-16T07:40:16;100829.97;;;21.77;61.67
23574;BME280;11965;53.640;10.050;2023-07-16T07:42:43;100822.16;;;21.52;64.72
23574;BME280;11965;53.640;10.050;2023-07-16T07:45:10;100832.59;;;21.57;63.23
23574;BME280;11965;53.640;10.050;2023-07-16T07:47:36;100834.25;;;21.26;65.37
23574;BME280;11965;53.640;10.050;2023-07-16T07:50:06;100834.31;;;21.58;62.14
23574;BME280;11965;53.640;10.050;2023-07-16T07:52:33;100821.16;;;21.69;62.56
23574;BME280;11965;53.640;10.050;2023-07-16T07:55:00;100827.84;;;21.62;64.43
23574;BME280;11965;53.640;10.050;2023-07-16T07:57:27;100826.69;;;21.31;66.03
23574;BME280;11965;53.640;10.050;2023-07-16T07:59:53;100828.78;;;21.41;62.58
23574;BME280;11965;53.640;10.050;2023-07-16T08:02:23;100816.69;;;22.15;61.76
23574;BME280;11965;53.640;10.050;2023-07-16T08:04:51;100815.72;;;22.37;58.68
23574;BME280;11965;53.640;10.050;2023-07-16T08:07:19;100827.13;;;22.62;56.59
23574;BME280;11965;53.640;10.050;2023-07-16T08:09:46;100824.13;;;22.89;58.33
23574;BME280;11965;53.640;10.050;2023-07-16T08:12:14;100825.38;;;23.19;55.21
23574;BME280;11965;53.640;10.050;2023-07-16T08:14:41;100823.28;;;22.94;57.51
23574;BME280;11965;53.640;10.050;2023-07-16T08:17:08;100828.81;;;22.58;57.30
23574;BME280;11965;53.640;10.050;2023-07-16T08:19:35;100829.38;;;22.60;56.85
23574;BME280;11965;53.640;10.050;2023-07-16T08:22:01;100829.06;;;22.52;58.06
23574;BME280;11965;53.640;10.050;2023-07-16T08:24:30;100838.44;;;22.62;56.78
23574;BME280;11965;53.640;10.050;2023-07-16T08:26:57;100839.25;;;22.15;57.89
23574;BME280;11965;53.640;10.050;2023-07-16T08:29:24;100828.38;;;21.92;60.20
23574;BME280;11965;53.640;10.050;2023-07-16T08:31:51;100837.84;;;21.75;59.52
23574;BME280;11965;53.640;10.050;2023-07-16T08:34:18;100834.47;;;21.78;59.66
23574;BME280;11965;53.640;10.050;2023-07-16T08:36:45;100825.22;;;21.51;60.28
23574;BME280;11965;53.640;10.050;2023-07-16T08:39:11;100830.66;;;21.62;60.21
23574;BME280;11965;53.640;10.050;2023-07-16T08:41:40;100828.66;;;21.90;59.63
23574;BME280;11965;53.640;10.050;2023-07-16T08:44:07;100824.44;;;22.35;58.14
23574;BME280;11965;53.640;10.050;2023-07-16T08:46:34;100817.06;;;22.87;55.78
23574;BME280;11965;53.640;10.050;2023-07-16T08:49:04;100818.38;;;22.64;55.09
23574;BME280;11965;53.640;10.050;2023-07-16T08:51:32;100813.38;;;22.81;54.80
23574;BME280;11965;53.640;10.050;2023-07-16T08:54:00;100816.97;;;22.66;55.78
23574;BME280;11965;53.640;10.050;2023-07-16T08:56:27;100824.19;;;22.37;57.37
23574;BME280;11965;53.640;10.050;2023-07-16T08:58:57;100832.03;;;21.87;59.42
23574;BME280;11965;53.640;10.050;2023-07-16T09:01:25;100829.53;;;21.58;57.64
23574;BME280;11965;53.640;10.050;2023-07-16T09:03:53;100838.34;;;21.67;61.92
23574;BME280;11965;53.640;10.050;2023-07-16T09:06:20;100836.72;;;22.61;54.27
23574;BME280;11965;53.640;10.050;2023-07-16T09:08:47;100849.09;;;23.13;52.56
23574;BME280;11965;53.640;10.050;2023-07-16T09:11:14;100848.56;;;23.26;51.16
23574;BME280;11965;53.640;10.050;2023-07-16T09:13:44;100850.25;;;23.22;51.58
23574;BME280;11965;53.640;10.050;2023-07-16T09:16:12;100853.53;;;22.93;51.47
23574;BME280;11965;53.640;10.050;2023-07-16T09:18:42;100861.41;;;22.91;53.69
23574;BME280;11965;53.640;10.050;2023-07-16T09:21:09;100860.38;;;23.03;51.53
23574;BME280;11965;53.640;10.050;2023-07-16T09:23:36;100850.25;;;23.17;53.75
23574;BME280;11965;53.640;10.050;2023-07-16T09:26:03;100856.81;;;23.43;55.16
23574;BME280;11965;53.640;10.050;2023-07-16T09:28:30;100859.97;;;23.72;51.92
23574;BME280;11965;53.640;10.050;2023-07-16T09:31:03;100856.84;;;23.74;48.97
23574;BME280;11965;53.640;10.050;2023-07-16T09:33:32;100864.22;;;23.95;49.65
23574;BME280;11965;53.640;10.050;2023-07-16T09:35:59;100873.22;;;24.54;49.03
23574;BME280;11965;53.640;10.050;2023-07-16T09:38:29;100869.53;;;24.43;46.92
23574;BME280;11965;53.640;10.050;2023-07-16T09:40:56;100883.13;;;24.56;47.11
23574;BME280;11965;53.640;10.050;2023-07-16T09:43:24;100876.63;;;24.45;46.21
23574;BME280;11965;53.640;10.050;2023-07-16T09:45:50;100870.97;;;24.51;44.61
23574;BME280;11965;53.640;10.050;2023-07-16T09:48:17;100876.69;;;23.94;46.28
23574;BME280;11965;53.640;10.050;2023-07-16T09:50:50;100897.00;;;23.71;46.73
23574;BME280;11965;53.640;10.050;2023-07-16T09:53:19;100889.94;;;23.68;48.02
23574;BME280;11965;53.640;10.050;2023-07-16T09:55:48;100881.44;;;23.63;48.75
23574;BME280;11965;53.640;10.050;2023-07-16T09:58:18;100881.69;;;23.46;48.89
23574;BME280;11965;53.640;10.050;2023-07-16T10:00:46;100879.72;;;23.52;47.42
23574;BME280;11965;53.640;10.050;2023-07-16T10:03:15;100891.31;;;23.50;48.47
23574;BME280;11965;53.640;10.050;2023-07-16T10:05:43;100907.53;;;22.92;47.25
23574;BME280;11965;53.640;10.050;2023-07-16T10:08:17;100894.94;;;22.20;50.59
23574;BME280;11965;53.640;10.050;2023-07-16T10:10:46;100919.25;;;22.26;50.30
23574;BME280;11965;53.640;10.050;2023-07-16T10:13:16;100911.88;;;23.15;51.96
23574;BME280;11965;53.640;10.050;2023-07-16T10:15:54;100908.84;;;23.47;48.36
23574;BME280;11965;53.640;10.050;2023-07-16T10:18:26;100922.81;;;23.90;48.20
23574;BME280;11965;53.640;10.050;2023-07-16T10:21:01;100927.88;;;23.77;45.64
23574;BME280;11965;53.640;10.050;2023-07-16T10:23:38;100915.44;;;24.30;46.97
23574;BME280;11965;53.640;10.050;2023-07-16T10:26:07;100931.16;;;24.97;45.21
23574;BME280;11965;53.640;10.050;2023-07-16T10:28:41;100933.25;;;24.61;43.29
23574;BME280;11965;53.640;10.050;2023-07-16T10:31:17;100925.94;;;24.09;45.88
23574;BME280;11965;53.640;10.050;2023-07-16T10:33:44;100930.16;;;24.37;44.09
23574;BME280;11965;53.640;10.050;2023-07-16T10:36:18;100944.75;;;23.36;43.35
23574;BME280;11965;53.640;10.050;2023-07-16T10:38:46;100938.84;;;22.85;47.96
23574;BME280;11965;53.640;10.050;2023-07-16T10:41:14;100941.09;;;23.46;45.74
23574;BME280;11965;53.640;10.050;2023-07-16T10:43:41;100946.31;;;24.00;45.78
23574;BME280;11965;53.640;10.050;2023-07-16T10:46:09;100954.50;;;23.81;44.56
23574;BME280;11965;53.640;10.050;2023-07-16T10:48:36;100935.75;;;23.60;43.78
23574;BME280;11965;53.640;10.050;2023-07-16T10:51:03;100941.44;;;23.70;44.44
23574;BME280;11965;53.640;10.050;2023-07-16T10:53:30;100946.59;;;23.89;45.31
23574;BME280;11965;53.640;10.050;2023-07-16T10:55:58;100944.81;;;23.62;44.80
23574;BME280;11965;53.640;10.050;2023-07-16T10:58:26;100948.44;;;23.47;46.25
23574;BME280;11965;53.640;10.050;2023-07-16T11:00:53;100949.91;;;23.65;44.86
23574;BME280;11965;53.640;10.050;2023-07-16T11:03:20;100949.84;;;23.40;47.82
23574;BME280;11965;53.640;10.050;2023-07-16T11:05:47;100966.28;;;23.53;45.79
23574;BME280;11965;53.640;10.050;2023-07-16T11:08:21;100959.34;;;23.86;45.12
23574;BME280;11965;53.640;10.050;2023-07-16T11:10:53;100943.16;;;23.76;44.18
23574;BME280;11965;53.640;10.050;2023-07-16T11:13:25;100958.16;;;23.77;46.33
23574;BME280;11965;53.640;10.050;2023-07-16T11:15:52;100960.75;;;23.94;48.03
23574;BME280;11965;53.640;10.050;2023-07-16T11:18:22;100955.09;;;24.14;42.56
23574;BME280;11965;53.640;10.050;2023-07-16T11:20:51;100960.75;;;24.24;43.13
23574;BME280;11965;53.640;10.050;2023-07-16T11:23:18;100964.03;;;24.98;45.54
23574;BME280;11965;53.640;10.050;2023-07-16T11:25:46;100960.06;;;25.09;42.47
23574;BME280;11965;53.640;10.050;2023-07-16T11:28:13;100969.44;;;25.05;41.83
23574;BME280;11965;53.640;10.050;2023-07-16T11:30:41;100972.97;;;24.51;42.04
23574;BME280;11965;53.640;10.050;2023-07-16T11:33:10;100967.28;;;24.40;42.65
23574;BME280;11965;53.640;10.050;2023-07-16T11:35:38;100975.19;;;24.18;46.03
23574;BME280;11965;53.640;10.050;2023-07-16T11:38:06;100979.13;;;24.94;42.82
23574;BME280;11965;53.640;10.050;2023-07-16T11:40:34;100976.81;;;25.01;42.22
23574;BME280;11965;53.640;10.050;2023-07-16T11:43:08;100985.13;;;24.61;43.22
23574;BME280;11965;53.640;10.050;2023-07-16T11:45:35;100973.19;;;24.80;43.73
23574;BME280;11965;53.640;10.050;2023-07-16T11:48:04;100982.47;;;25.16;43.49
23574;BME280;11965;53.640;10.050;2023-07-16T11:50:31;100979.00;;;25.34;42.53
23574;BME280;11965;53.640;10.050;2023-07-16T11:53:00;100978.22;;;25.03;41.67
23574;BME280;11965;53.640;10.050;2023-07-16T11:55:27;100980.78;;;25.00;42.10
23574;BME280;11965;53.640;10.050;2023-07-16T11:57:54;100996.94;;;25.09;41.91
23574;BME280;11965;53.640;10.050;2023-07-16T12:00:22;100991.03;;;24.85;40.30
23574;BME280;11965;53.640;10.050;2023-07-16T12:02:49;100977.47;;;24.62;41.95
23574;BME280;11965;53.640;10.050;2023-07-16T12:05:19;100983.97;;;24.42;43.46
23574;BME280;11965;53.640;10.050;2023-07-16T12:07:46;100981.16;;;24.73;44.54
23574;BME280;11965;53.640;10.050;2023-07-16T12:10:13;100971.44;;;24.99;40.98
23574;BME280;11965;53.640;10.050;2023-07-16T12:12:40;100977.78;;;25.46;41.06
23574;BME280;11965;53.640;10.050;2023-07-16T12:15:08;100989.28;;;25.75;42.27
23574;BME280;11965;53.640;10.050;2023-07-16T12:17:35;100994.63;;;25.27;42.44
23574;BME280;11965;53.640;10.050;2023-07-16T12:20:03;100995.22;;;25.08;42.75
23574;BME280;11965;53.640;10.050;2023-07-16T12:22:32;101004.91;;;24.92;42.15
23574;BME280;11965;53.640;10.050;2023-07-16T12:24:59;101001.00;;;24.32;41.69
23574;BME280;11965;53.640;10.050;2023-07-16T12:27:26;101014.84;;;24.43;44.63
23574;BME280;11965;53.640;10.050;2023-07-16T12:29:53;101012.91;;;24.49;43.21
23574;BME280;11965;53.640;10.050;2023-07-16T12:32:20;100999.56;;;24.24;42.90
23574;BME280;11965;53.640;10.050;2023-07-16T12:34:47;101006.41;;;24.59;45.39
23574;BME280;11965;53.640;10.050;2023-07-16T12:37:14;101009.41;;;25.08;46.32
23574;BME280;11965;53.640;10.050;2023-07-16T12:39:43;101004.66;;;24.83;42.75
23574;BME280;11965;53.640;10.050;2023-07-16T12:42:10;101011.66;;;25.17;43.11